Time;durP1;ratioP1;P1;durP2;ratioP2;P2;SDS_P1;SDS_P2;PMS_P1;PMS_P2;Temp;Humidity;BMP_temperature;BMP_pressure;BME280_temperature;BME280_humidity;BME280_pressure;Samples;Min_cycle;Max_cycle;Signal;HPM_P1;HPM_P2
2022/02/21 00:00:32;;;;;;;2.15;1.10;;;20.00;58.40;;;;;;5009333;28;95957;-53
2022/02/21 00:03:06;;;;;;;3.15;1.20;;;20.10;63.80;;;;;;5013177;28;97704;-55
2022/02/21 00:05:39;;;;;;;5.05;1.33;;;20.10;63.80;;;;;;5005511;28;95951;-54
2022/02/21 00:08:10;;;;;;;4.47;1.23;;;20.10;63.60;;;;;;5015319;28;95840;-53
2022/02/21 00:10:42;;;;;;;3.90;1.65;;;20.10;64.00;;;;;;5013835;28;96245;-56
2022/02/21 00:13:13;;;;;;;2.65;1.23;;;20.20;63.80;;;;;;5018410;28;96467;-56
2022/02/21 00:15:43;;;;;;;3.63;0.97;;;20.20;63.70;;;;;;5010942;28;98783;-58
2022/02/21 00:18:15;;;;;;;4.53;1.58;;;20.20;63.70;;;;;;5018301;28;95914;-57
2022/02/21 00:20:45;;;;;;;3.13;1.33;;;20.30;63.50;;;;;;5015472;28;98087;-55
2022/02/21 00:23:16;;;;;;;3.30;0.82;;;20.30;63.00;;;;;;5016602;28;95306;-57
2022/02/21 00:25:47;;;;;;;3.28;0.82;;;20.30;63.20;;;;;;5017123;28;98387;-55
2022/02/21 00:28:18;;;;;;;4.80;1.65;;;20.30;63.20;;;;;;5015763;28;96686;-56
2022/02/21 00:30:48;;;;;;;5.97;0.95;;;20.30;63.20;;;;;;5007465;28;96675;-57
2022/02/21 00:33:21;;;;;;;2.45;0.93;;;20.30;63.00;;;;;;5016127;28;96424;-55
2022/02/21 00:35:52;;;;;;;3.33;1.38;;;20.30;63.00;;;;;;5018054;28;95321;-54
2022/02/21 00:38:23;;;;;;;4.68;1.02;;;20.30;63.00;;;;;;5018115;28;96715;-56
2022/02/21 00:40:54;;;;;;;6.22;1.30;;;20.30;61.80;;;;;;5014664;28;96054;-52
2022/02/21 00:43:25;;;;;;;5.17;1.63;;;20.30;61.80;;;;;;5016210;28;95713;-57
2022/02/21 00:45:57;;;;;;;2.47;1.10;;;20.40;62.10;;;;;;5008258;28;95833;-56
2022/02/21 00:48:28;;;;;;;3.17;1.00;;;20.50;61.60;;;;;;5017102;28;96690;-57
2022/02/21 00:50:59;;;;;;;2.95;1.05;;;20.50;61.70;;;;;;5016270;28;96577;-55
2022/02/21 00:53:30;;;;;;;3.80;1.40;;;20.60;62.00;;;;;;5015002;28;95870;-57
2022/02/21 00:56:02;;;;;;;4.50;1.55;;;20.60;60.70;;;;;;5017273;28;96798;-59
2022/02/21 00:58:34;;;;;;;2.88;1.10;;;20.60;61.40;;;;;;5015367;28;95900;-53
2022/02/21 01:01:05;;;;;;;;;;;20.60;60.30;;;;;;4995507;28;96159;-56
2022/02/21 01:03:36;;;;;;;2.50;0.90;;;20.60;61.20;;;;;;5016251;28;95368;-51
2022/02/21 01:06:08;;;;;;;4.90;1.15;;;20.50;61.00;;;;;;5019818;28;95365;-56
2022/02/21 01:08:40;;;;;;;2.90;1.60;;;20.60;60.70;;;;;;5016277;28;96035;-55
2022/02/21 01:11:12;;;;;;;2.17;1.02;;;20.60;60.60;;;;;;5020376;28;95967;-55
2022/02/21 01:13:44;;;;;;;2.88;0.95;;;20.60;60.60;;;;;;5011887;28;96041;-54
2022/02/21 01:16:15;;;;;;;1.02;0.70;;;20.60;59.90;;;;;;5011552;28;96148;-56
2022/02/21 01:18:48;;;;;;;2.08;0.82;;;20.70;60.50;;;;;;5006590;28;96178;-56
2022/02/21 01:21:19;;;;;;;3.60;0.95;;;20.60;60.20;;;;;;5020506;28;95592;-54
2022/02/21 01:23:50;;;;;;;;;;;20.60;60.30;;;;;;5021324;28;95922;-53
2022/02/21 01:26:22;;;;;;;3.13;0.70;;;20.70;60.60;;;;;;5023827;28;95719;-52
2022/02/21 01:28:54;;;;;;;1.42;0.70;;;20.70;59.30;;;;;;5006186;28;99213;-55
2022/02/21 01:31:26;;;;;;;4.85;1.33;;;20.80;59.60;;;;;;5012570;28;96056;-54
2022/02/21 01:33:57;;;;;;;4.17;1.00;;;20.80;60.00;;;;;;5023972;28;95926;-54
2022/02/21 01:36:29;;;;;;;4.95;1.10;;;20.80;60.00;;;;;;5022924;28;95571;-51
2022/02/21 01:38:59;;;;;;;;;;;20.90;59.80;;;;;;5024620;28;95938;-51
2022/02/21 01:41:30;;;;;;;3.03;1.33;;;21.20;59.80;;;;;;5025006;28;95597;-55
2022/02/21 01:44:06;;;;;;;3.00;1.17;;;21.40;59.00;;;;;;5022694;28;97558;-57
2022/02/21 01:46:38;;;;;;;1.95;0.88;;;21.50;58.90;;;;;;5015467;28;96361;-55
2022/02/21 01:49:08;;;;;;;;;;;21.60;58.70;;;;;;5023967;28;98303;-54
2022/02/21 01:51:39;;;;;;;3.25;0.85;;;21.70;58.40;;;;;;5008167;28;96338;-53
2022/02/21 01:54:12;;;;;;;2.80;1.08;;;21.80;58.10;;;;;;5025651;28;95747;-55
2022/02/21 01:56:43;;;;;;;1.55;0.90;;;21.90;57.50;;;;;;5021241;28;96407;-56
2022/02/21 01:59:13;;;;;;;2.20;0.93;;;22.10;56.90;;;;;;5022715;28;95834;-55
2022/02/21 02:01:43;;;;;;;2.58;0.90;;;22.10;56.60;;;;;;5015440;28;95804;-57
2022/02/21 02:04:14;;;;;;;1.27;0.85;;;22.20;56.50;;;;;;5021056;28;95306;-58
2022/02/21 02:06:46;;;;;;;1.50;0.90;;;22.30;56.50;;;;;;5023176;28;95297;-51
2022/02/21 02:09:19;;;;;;;6.05;1.00;;;22.40;56.10;;;;;;5020922;28;95678;-52
2022/02/21 02:11:52;;;;;;;4.20;0.93;;;22.50;56.00;;;;;;5023728;28;95806;-54
2022/02/21 02:14:28;;;;;;;1.83;0.90;;;22.60;55.50;;;;;;5023505;28;96110;-56
2022/02/21 02:17:13;;;;;;;2.65;0.90;;;22.70;55.20;;;;;;5016357;28;95323;-55
2022/02/21 02:19:47;;;;;;;1.00;0.90;;;22.90;54.60;;;;;;5021903;28;95853;-53
2022/02/21 02:22:21;;;;;;;0.95;0.80;;;23.00;54.40;;;;;;5020974;28;95510;-53
2022/02/21 02:24:54;;;;;;;1.85;0.82;;;23.20;53.90;;;;;;5023265;28;95320;-55
2022/02/21 02:27:28;;;;;;;1.73;0.77;;;23.20;53.90;;;;;;5023263;28;95948;-56
2022/02/21 02:30:01;;;;;;;2.03;0.93;;;23.30;54.00;;;;;;5022842;28;95866;-55
2022/02/21 02:32:31;;;;;;;1.83;0.80;;;23.40;53.90;;;;;;5017461;28;97530;-54
2022/02/21 02:35:02;;;;;;;2.87;1.23;;;23.50;53.60;;;;;;5022797;28;95828;-57
2022/02/21 02:37:33;;;;;;;3.78;0.95;;;23.50;53.20;;;;;;5013927;28;95520;-56
2022/02/21 02:40:04;;;;;;;1.10;0.80;;;23.60;53.10;;;;;;5021743;28;95860;-56
2022/02/21 02:42:36;;;;;;;2.75;1.17;;;23.60;53.00;;;;;;5019192;28;95956;-57
2022/02/21 02:45:07;;;;;;;3.40;1.08;;;23.60;53.00;;;;;;5021981;28;95980;-55
2022/02/21 02:47:38;;;;;;;3.50;1.40;;;23.60;53.20;;;;;;5019901;28;96286;-61
2022/02/21 02:50:09;;;;;;;7.22;1.17;;;23.70;43.90;;;;;;5023607;28;97673;-58
2022/02/21 02:52:39;;;;;;;2.58;0.93;;;23.60;52.50;;;;;;5022696;28;96090;-56
2022/02/21 02:55:10;;;;;;;2.80;1.00;;;23.60;52.60;;;;;;5021867;28;95920;-57
2022/02/21 02:57:41;;;;;;;1.90;0.82;;;23.60;53.00;;;;;;5022808;28;95741;-58
2022/02/21 03:00:13;;;;;;;2.78;1.13;;;23.70;53.90;;;;;;5015832;28;96384;-56
2022/02/21 03:02:44;;;;;;;4.30;1.27;;;23.70;52.50;;;;;;5021105;28;103144;-56
2022/02/21 03:05:16;;;;;;;3.95;1.15;;;23.70;52.60;;;;;;5021594;28;96039;-51
2022/02/21 03:07:47;;;;;;;4.82;1.08;;;23.70;52.10;;;;;;5023401;28;96537;-52
2022/02/21 03:10:18;;;;;;;3.38;1.00;;;23.70;52.50;;;;;;5022281;28;96365;-55
2022/02/21 03:12:49;;;;;;;2.22;1.05;;;23.70;52.60;;;;;;5021365;28;95620;-54
2022/02/21 03:15:19;;;;;;;1.58;0.80;;;23.60;52.00;;;;;;5016108;28;95950;-57
2022/02/21 03:17:50;;;;;;;2.38;0.88;;;23.50;52.70;;;;;;5020365;28;95887;-56
2022/02/21 03:20:22;;;;;;;2.95;0.82;;;23.40;53.10;;;;;;5016454;28;97293;-56
2022/02/21 03:22:52;;;;;;;3.58;1.00;;;23.40;53.20;;;;;;5020457;28;95867;-54
2022/02/21 03:25:23;;;;;;;3.50;1.10;;;23.30;52.90;;;;;;5005197;28;95877;-54
2022/02/21 03:27:54;;;;;;;5.22;1.13;;;23.30;52.70;;;;;;5016991;28;95339;-54
2022/02/21 03:30:25;;;;;;;5.10;1.00;;;23.30;53.10;;;;;;5009571;28;96648;-55
2022/02/21 03:32:57;;;;;;;2.38;0.90;;;23.30;52.20;;;;;;5016913;28;96010;-56
2022/02/21 03:35:29;;;;;;;4.25;1.33;;;23.30;53.30;;;;;;5018023;28;95318;-55
2022/02/21 03:37:59;;;;;;;4.35;1.05;;;23.40;53.30;;;;;;5017876;28;96384;-53
2022/02/21 03:40:30;;;;;;;3.33;1.25;;;23.40;53.50;;;;;;5016812;28;96658;-55
2022/02/21 03:43:02;;;;;;;3.80;1.13;;;23.40;52.70;;;;;;5016101;28;95821;-54
2022/02/21 03:45:33;;;;;;;3.00;0.90;;;23.40;42.70;;;;;;5007646;28;96190;-56
2022/02/21 03:48:04;;;;;;;4.82;1.52;;;23.30;53.30;;;;;;5017935;28;96330;-56
2022/02/21 03:50:34;;;;;;;3.92;1.05;;;23.40;53.20;;;;;;5017237;28;96633;-56
2022/02/21 03:53:05;;;;;;;4.22;1.42;;;23.40;53.60;;;;;;5017927;28;96028;-54
2022/02/21 03:55:36;;;;;;;5.20;1.60;;;23.40;53.30;;;;;;5017990;28;96465;-57
2022/02/21 03:58:06;;;;;;;5.88;1.42;;;23.40;53.10;;;;;;5017196;28;95834;-57
2022/02/21 04:00:36;;;;;;;7.53;1.40;;;23.40;52.20;;;;;;5008173;28;96527;-53
2022/02/21 04:03:08;;;;;;;;;;;23.30;53.60;;;;;;5016731;28;96481;-53
2022/02/21 04:05:41;;;;;;;4.18;1.58;;;23.30;53.00;;;;;;5017311;28;95546;-57
2022/02/21 04:08:13;;;;;;;6.60;1.55;;;23.30;53.80;;;;;;5017524;28;96167;-54
2022/02/21 04:10:45;;;;;;;3.70;1.20;;;23.40;53.60;;;;;;5018985;28;96570;-56
2022/02/21 04:13:16;;;;;;;6.28;1.35;;;23.40;53.40;;;;;;5016981;28;96158;-53
2022/02/21 04:15:46;;;;;;;3.85;1.13;;;23.40;53.10;;;;;;5007584;28;97240;-53
2022/02/21 04:18:18;;;;;;;4.85;1.38;;;23.30;53.30;;;;;;5015680;28;95890;-56
2022/02/21 04:20:50;;;;;;;3.65;1.27;;;23.40;53.50;;;;;;5016969;28;95953;-54
2022/02/21 04:23:21;;;;;;;5.03;1.48;;;23.30;53.10;;;;;;5017204;28;95855;-53
2022/02/21 04:25:52;;;;;;;7.00;1.33;;;23.30;52.10;;;;;;5018042;28;95868;-54
2022/02/21 04:28:22;;;;;;;3.72;1.20;;;23.40;53.30;;;;;;5016554;28;95733;-52
2022/02/21 04:30:52;;;;;;;3.27;1.13;;;23.30;53.20;;;;;;5006965;28;96443;-52
2022/02/21 04:33:26;;;;;;;5.80;1.60;;;23.30;53.20;;;;;;5016110;28;96170;-53
2022/02/21 04:35:58;;;;;;;2.20;1.00;;;23.30;53.40;;;;;;5014552;28;95427;-59
2022/02/21 04:38:29;;;;;;;3.53;1.27;;;23.40;53.40;;;;;;5018772;28;97099;-56
2022/02/21 04:40:59;;;;;;;;;;;23.60;53.70;;;;;;5008884;28;96705;-56
2022/02/21 04:43:30;;;;;;;8.32;1.27;;;23.70;53.30;;;;;;5020575;28;95920;-50
2022/02/21 04:46:01;;;;;;;2.05;0.80;;;23.80;43.10;;;;;;5011495;28;95625;-52
2022/02/21 04:48:31;;;;;;;;;;;23.90;53.50;;;;;;5021481;28;95393;-52
2022/02/21 04:51:01;;;;;;;5.18;1.40;;;24.00;53.50;;;;;;5020947;28;96133;-53
2022/02/21 04:53:31;;;;;;;6.20;1.27;;;24.10;53.50;;;;;;5018808;28;96684;-51
2022/02/21 04:56:03;;;;;;;3.05;1.27;;;24.10;53.30;;;;;;5018522;28;96624;-50
2022/02/21 04:58:33;;;;;;;5.25;1.83;;;24.20;53.60;;;;;;5019047;28;95945;-54
2022/02/21 05:01:05;;;;;;;6.93;2.05;;;24.10;47.70;;;;;;5011323;28;96715;-53
2022/02/21 05:03:36;;;;;;;11.48;1.85;;;23.70;49.20;;;;;;5019966;28;96524;-53
2022/02/21 05:06:10;;;;;;;11.23;2.28;;;23.30;49.70;;;;;;5018224;28;96127;-53
2022/02/21 05:08:41;;;;;;;7.72;1.63;;;23.20;49.70;;;;;;5019443;28;95932;-57
2022/02/21 05:11:12;;;;;;;5.50;1.73;;;23.20;49.70;;;;;;5012373;28;96724;-55
2022/02/21 05:13:43;;;;;;;9.13;1.40;;;23.20;50.30;;;;;;5019000;28;95942;-53
2022/02/21 05:16:14;;;;;;;4.10;1.60;;;23.10;49.20;;;;;;5011328;28;95792;-56
2022/02/21 05:18:45;;;;;;;;;;;23.20;50.80;;;;;;5020030;28;97200;-57
2022/02/21 05:21:16;;;;;;;6.80;1.48;;;22.90;44.60;;;;;;5020956;28;95920;-55
2022/02/21 05:23:47;;;;;;;4.40;1.50;;;22.60;49.20;;;;;;5018145;28;95507;-56
2022/02/21 05:26:19;;;;;;;4.45;1.02;;;22.80;48.20;;;;;;5018306;28;95649;-54
2022/02/21 05:28:49;;;;;;;6.35;1.33;;;22.80;47.70;;;;;;5021984;28;95942;-57
2022/02/21 05:31:21;;;;;;;2.88;1.30;;;22.80;49.20;;;;;;5012222;27;96807;-50
2022/02/21 05:33:53;;;;;;;6.07;1.58;;;22.80;47.10;;;;;;5019330;28;96513;-55
2022/02/21 05:36:26;;;;;;;6.70;1.30;;;22.50;45.50;;;;;;5020247;28;96424;-54
2022/02/21 05:38:56;;;;;;;4.88;1.27;;;22.50;47.10;;;;;;5020765;28;95536;-56
2022/02/21 05:41:29;;;;;;;;;;;22.50;44.40;;;;;;5018380;28;96464;-57
2022/02/21 05:44:01;;;;;;;5.80;1.35;;;22.40;46.50;;;;;;5019678;28;95740;-55
2022/02/21 05:46:35;;;;;;;8.10;1.50;;;22.40;47.00;;;;;;5012158;28;98143;-58
2022/02/21 05:49:05;;;;;;;5.38;1.00;;;22.40;45.80;;;;;;5007378;27;95742;-56
2022/02/21 05:51:35;;;;;;;4.20;1.05;;;22.50;46.00;;;;;;5010401;28;96043;-56
2022/02/21 05:54:06;;;;;;;6.10;1.10;;;22.60;47.20;;;;;;5021321;28;97419;-55
2022/02/21 05:56:37;;;;;;;5.38;1.05;;;22.80;45.10;;;;;;5021030;28;95783;-53
2022/02/21 05:59:08;;;;;;;;;;;22.70;46.10;;;;;;5019417;28;96479;-56
2022/02/21 06:01:38;;;;;;;7.05;1.42;;;22.70;46.90;;;;;;5008341;28;97048;-57
2022/02/21 06:04:10;;;;;;;4.95;1.10;;;22.50;45.00;;;;;;5020902;28;96502;-56
2022/02/21 06:06:42;;;;;;;3.22;1.10;;;22.50;45.90;;;;;;5019179;28;96036;-54
2022/02/21 06:09:13;;;;;;;8.23;1.30;;;22.20;44.80;;;;;;5019107;28;95890;-57
2022/02/21 06:11:45;;;;;;;4.38;1.08;;;22.10;45.30;;;;;;5017933;28;96559;-55
2022/02/21 06:14:16;;;;;;;4.03;1.10;;;22.10;43.60;;;;;;5017479;28;95950;-56
2022/02/21 06:16:46;;;;;;;8.95;1.35;;;21.90;44.60;;;;;;5011816;28;95875;-55
2022/02/21 06:19:19;;;;;;;1.77;0.95;;;22.00;46.60;;;;;;5019398;28;95768;-53
2022/02/21 06:21:50;;;;;;;3.88;1.35;;;22.20;45.60;;;;;;5014519;28;97421;-54
2022/02/21 06:24:21;;;;;;;3.97;1.45;;;22.20;45.10;;;;;;5020011;28;97397;-55
2022/02/21 06:26:53;;;;;;;5.32;1.48;;;22.10;44.60;;;;;;5019506;28;95812;-53
2022/02/21 06:29:23;;;;;;;7.75;1.40;;;22.00;44.30;;;;;;5019466;28;95817;-56
2022/02/21 06:31:53;;;;;;;6.88;1.10;;;22.00;45.20;;;;;;5010748;28;95779;-53
2022/02/21 06:34:24;;;;;;;5.78;1.35;;;22.00;45.10;;;;;;5018678;28;96039;-53
2022/02/21 06:36:58;;;;;;;3.78;1.25;;;22.10;45.80;;;;;;5018944;28;96056;-54
2022/02/21 06:39:29;;;;;;;4.68;1.20;;;22.10;45.60;;;;;;5018889;28;95722;-53
2022/02/21 06:42:00;;;;;;;;;;;22.20;45.50;;;;;;5017082;28;96640;-55
2022/02/21 06:44:32;;;;;;;5.38;1.23;;;22.20;45.50;;;;;;5017050;28;96286;-54
2022/02/21 06:47:03;;;;;;;2.95;1.20;;;22.10;45.60;;;;;;5010401;28;95866;-58
2022/02/21 06:49:33;;;;;;;;;;;22.00;45.60;;;;;;5017712;28;95847;-59
2022/02/21 06:52:05;;;;;;;7.07;1.50;;;21.90;45.50;;;;;;5020030;28;95858;-56
2022/02/21 06:54:36;;;;;;;2.55;1.27;;;21.80;45.90;;;;;;5018662;28;95920;-56
2022/02/21 06:57:07;;;;;;;;;;;21.80;45.90;;;;;;5019655;28;96067;-58
2022/02/21 06:59:37;;;;;;;4.10;1.20;;;22.00;46.50;;;;;;5020860;28;96312;-57
2022/02/21 07:02:07;;;;;;;6.18;1.13;;;22.10;46.70;;;;;;5010529;27;96480;-57
2022/02/21 07:04:38;;;;;;;5.90;0.98;;;21.70;45.50;;;;;;5016977;28;95490;-55
2022/02/21 07:07:09;;;;;;;;;;;21.70;47.00;;;;;;5019115;28;96068;-56
2022/02/21 07:09:40;;;;;;;2.90;0.93;;;21.80;46.60;;;;;;5016716;28;96061;-55
2022/02/21 07:12:11;;;;;;;2.75;0.90;;;21.70;45.30;;;;;;5017688;28;96668;-57
2022/02/21 07:14:43;;;;;;;5.00;1.35;;;21.50;45.90;;;;;;5020011;28;96069;-57
2022/02/21 07:17:14;;;;;;;4.47;1.00;;;21.50;45.70;;;;;;5009914;28;97895;-54
2022/02/21 07:19:45;;;;;;;6.60;1.30;;;21.50;46.20;;;;;;5016817;28;95892;-54
2022/02/21 07:22:17;;;;;;;3.72;1.10;;;21.50;46.30;;;;;;5016814;28;95942;-55
2022/02/21 07:24:48;;;;;;;9.68;1.17;;;21.50;46.00;;;;;;5016395;28;96575;-55
2022/02/21 07:27:19;;;;;;;5.63;1.48;;;21.40;46.70;;;;;;5017160;28;97071;-56
2022/02/21 07:29:49;;;;;;;2.58;0.90;;;21.40;47.10;;;;;;5016989;28;97660;-57
2022/02/21 07:32:19;;;;;;;5.97;1.35;;;21.40;47.10;;;;;;5007352;28;96649;-57
2022/02/21 07:34:49;;;;;;;5.07;1.10;;;21.40;46.60;;;;;;5017630;28;95979;-55
2022/02/21 07:37:20;;;;;;;9.10;2.05;;;21.40;45.90;;;;;;5015840;28;96113;-56
2022/02/21 07:39:51;;;;;;;3.65;1.35;;;21.00;46.10;;;;;;5017171;28;96159;-53
2022/02/21 07:42:24;;;;;;;13.82;5.18;;;21.00;46.70;;;;;;5016073;28;96555;-54
2022/02/21 07:44:55;;;;;;;20.13;9.68;;;20.90;46.30;;;;;;5017357;28;95886;-57
2022/02/21 07:47:28;;;;;;;20.23;10.43;;;20.90;46.80;;;;;;5011300;28;96454;-60
2022/02/21 07:49:59;;;;;;;11.05;6.47;;;20.80;46.70;;;;;;5018508;28;95848;-56
2022/02/21 07:52:30;;;;;;;12.57;6.15;;;20.80;46.90;;;;;;5018216;28;96729;-58
2022/02/21 07:55:01;;;;;;;21.25;11.40;;;20.50;46.90;;;;;;5015547;28;95925;-58
2022/02/21 07:57:33;;;;;;;57.28;25.35;;;20.60;48.80;;;;;;5016064;28;95866;-56
2022/02/21 08:00:04;;;;;;;43.80;26.42;;;20.90;49.80;;;;;;5016152;28;95800;-57
2022/02/21 08:02:40;;;;;;;46.33;24.50;;;21.20;49.70;;;;;;5015964;28;97185;-55
2022/02/21 08:05:12;;;;;;;46.30;28.27;;;21.30;40.10;;;;;;5017428;28;95780;-54
2022/02/21 08:07:44;;;;;;;40.28;22.48;;;21.30;51.10;;;;;;5018913;28;98133;-56
2022/02/21 08:10:16;;;;;;;38.25;20.63;;;21.40;50.50;;;;;;5017297;28;95702;-55
2022/02/21 08:12:47;;;;;;;35.08;18.23;;;21.40;51.00;;;;;;5013999;28;95929;-55
2022/02/21 08:15:18;;;;;;;27.92;15.93;;;21.30;50.20;;;;;;5018506;28;96925;-55
2022/02/21 08:17:50;;;;;;;24.73;14.07;;;21.30;51.70;;;;;;5014610;28;95867;-57
2022/02/21 08:20:24;;;;;;;14.85;5.43;;;21.20;50.80;;;;;;5018308;28;96155;-56
2022/02/21 08:22:56;;;;;;;24.98;11.60;;;21.10;49.50;;;;;;5018684;28;96741;-57
2022/02/21 08:25:28;;;;;;;16.85;7.90;;;21.10;50.70;;;;;;5017507;28;95970;-55
2022/02/21 08:27:58;;;;;;;19.15;10.40;;;21.10;50.30;;;;;;5016513;28;96004;-57
2022/02/21 08:30:29;;;;;;;;;;;21.10;51.80;;;;;;5008881;28;95990;-56
2022/02/21 08:32:59;;;;;;;18.05;5.82;;;20.80;50.10;;;;;;5016064;28;96227;-56
2022/02/21 08:35:30;;;;;;;13.65;5.57;;;20.80;51.30;;;;;;5016642;28;97274;-53
2022/02/21 08:38:02;;;;;;;10.57;3.77;;;20.70;50.20;;;;;;5017360;28;95723;-57
2022/02/21 08:40:33;;;;;;;11.48;3.80;;;20.30;50.30;;;;;;5018432;28;95986;-56
2022/02/21 08:43:05;;;;;;;10.95;3.10;;;20.30;51.50;;;;;;5017387;28;97908;-56
2022/02/21 08:45:35;;;;;;;;;;;20.30;50.50;;;;;;5007852;28;95630;-56
2022/02/21 08:48:05;;;;;;;8.13;3.00;;;20.40;52.40;;;;;;5020153;28;95425;-59
2022/02/21 08:50:35;;;;;;;8.20;3.45;;;20.50;51.30;;;;;;5019674;28;95723;-58
2022/02/21 08:53:05;;;;;;;9.80;2.63;;;20.40;51.00;;;;;;5018413;28;95962;-56
2022/02/21 08:55:37;;;;;;;21.17;3.92;;;20.50;51.60;;;;;;5019191;28;95853;-57
2022/02/21 08:58:07;;;;;;;7.63;2.40;;;20.50;51.40;;;;;;5022709;28;96199;-56
2022/02/21 09:00:40;;;;;;;8.35;3.22;;;20.40;50.60;;;;;;5012429;27;97121;-56
2022/02/21 09:03:13;;;;;;;5.78;2.45;;;20.40;52.10;;;;;;5020130;28;95834;-58
2022/02/21 09:05:45;;;;;;;5.30;1.95;;;20.50;52.30;;;;;;5023388;28;95681;-58
2022/02/21 09:08:19;;;;;;;5.90;2.42;;;20.40;50.90;;;;;;5024435;28;95396;-58
2022/02/21 09:10:53;;;;;;;6.18;1.90;;;20.40;52.90;;;;;;5023991;28;96001;-59
2022/02/21 09:13:25;;;;;;;6.63;1.73;;;20.30;52.10;;;;;;5021066;28;95301;-58
2022/02/21 09:15:56;;;;;;;4.65;1.90;;;20.40;52.00;;;;;;5013138;28;96540;-58
2022/02/21 09:18:28;;;;;;;4.78;1.90;;;20.20;51.40;;;;;;5016294;28;95290;-59
2022/02/21 09:20:59;;;;;;;4.72;1.27;;;20.20;52.80;;;;;;5018306;28;97998;-57
2022/02/21 09:23:30;;;;;;;;;;;20.10;52.40;;;;;;5023378;28;96475;-58
2022/02/21 09:26:02;;;;;;;9.20;1.48;;;20.10;52.80;;;;;;5029113;27;95899;-55
2022/02/21 09:28:32;;;;;;;6.70;1.83;;;19.80;52.80;;;;;;5010109;28;95667;-58
2022/02/21 09:31:02;;;;;;;4.80;1.40;;;19.80;53.70;;;;;;5022979;28;96453;-56
2022/02/21 09:33:33;;;;;;;3.97;1.35;;;19.80;53.90;;;;;;5017304;28;95910;-56
2022/02/21 09:36:05;;;;;;;7.43;1.17;;;19.80;42.60;;;;;;5017659;28;96020;-57
2022/02/21 09:38:35;;;;;;;2.78;1.10;;;19.70;53.60;;;;;;5021863;28;95729;-58
2022/02/21 09:41:07;;;;;;;6.82;1.52;;;19.60;54.30;;;;;;5026862;28;96749;-58
2022/02/21 09:43:38;;;;;;;8.60;1.77;;;19.60;54.00;;;;;;5025783;28;96847;-58
2022/02/21 09:46:11;;;;;;;8.98;1.88;;;19.60;54.80;;;;;;5019094;28;95424;-59
2022/02/21 09:48:45;;;;;;;6.85;1.85;;;19.50;55.10;;;;;;5026002;28;95372;-59
2022/02/21 09:51:15;;;;;;;4.07;1.35;;;19.50;55.10;;;;;;5009665;28;95298;-57
2022/02/21 09:53:47;;;;;;;8.63;1.67;;;19.50;55.40;;;;;;5021249;28;96431;-55
2022/02/21 09:56:18;;;;;;;3.95;1.40;;;19.40;55.50;;;;;;5023347;28;95737;-58
2022/02/21 09:58:54;;;;;;;5.72;1.90;;;19.30;55.80;;;;;;5024726;28;95710;-59
2022/02/21 10:01:28;;;;;;;5.03;1.65;;;19.20;55.80;;;;;;5018784;28;95613;-59
2022/02/21 10:04:00;;;;;;;5.20;1.10;;;19.10;56.40;;;;;;5024021;28;95793;-59
2022/02/21 10:06:34;;;;;;;7.07;1.52;;;19.00;56.70;;;;;;5011090;28;95773;-58
2022/02/21 10:09:14;;;;;;;3.63;1.23;;;19.00;57.10;;;;;;5018606;28;96037;-59
2022/02/21 10:11:47;;;;;;;7.82;1.70;;;18.90;57.10;;;;;;5028055;28;95807;-57
2022/02/21 10:14:23;;;;;;;6.43;1.38;;;18.80;57.30;;;;;;5024823;28;95895;-58
2022/02/21 10:17:02;;;;;;;8.75;1.40;;;18.80;57.80;;;;;;5017710;27;95864;-59
2022/02/21 10:19:41;;;;;;;7.88;2.28;;;18.80;57.70;;;;;;5027263;28;96002;-57
2022/02/21 10:22:15;;;;;;;5.50;1.35;;;18.70;57.90;;;;;;5021763;28;96302;-57
2022/02/21 10:24:49;;;;;;;4.72;1.65;;;18.70;58.00;;;;;;5014866;28;96433;-57
2022/02/21 10:27:28;;;;;;;8.75;1.45;;;18.60;58.20;;;;;;5021813;28;96000;-57
2022/02/21 10:30:05;;;;;;;6.43;1.38;;;18.50;58.40;;;;;;5028568;27;95721;-59
2022/02/21 10:32:56;;;;;;;4.38;1.25;;;18.40;58.60;;;;;;5028782;28;95924;-55
2022/02/21 10:35:30;;;;;;;17.73;2.50;;;18.30;58.90;;;;;;5016177;28;96359;-59
2022/02/21 10:38:03;;;;;;;12.20;1.88;;;18.20;58.90;;;;;;5015607;28;95667;-57
2022/02/21 10:40:38;;;;;;;9.07;1.83;;;18.20;59.00;;;;;;5009249;28;95654;-58
2022/02/21 10:43:18;;;;;;;8.52;1.63;;;18.10;59.20;;;;;;5011132;28;95732;-55
2022/02/21 10:45:49;;;;;;;6.93;1.38;;;18.00;59.40;;;;;;5013862;28;98848;-59
2022/02/21 10:48:23;;;;;;;13.63;2.35;;;18.00;59.40;;;;;;5011393;28;96327;-59
2022/02/21 10:51:03;;;;;;;8.40;1.92;;;17.80;59.80;;;;;;5014316;28;95198;-57
2022/02/21 10:53:49;;;;;;;8.13;1.30;;;17.80;60.00;;;;;;5017038;28;95241;-58
2022/02/21 10:56:21;;;;;;;7.40;1.50;;;17.70;60.00;;;;;;5015929;28;95922;-58
2022/02/21 10:58:56;;;;;;;9.60;1.60;;;17.60;60.60;;;;;;5008385;28;95947;-59
2022/02/21 11:01:28;;;;;;;12.18;1.88;;;17.50;60.90;;;;;;5009076;27;95680;-59
2022/02/21 11:04:01;;;;;;;6.25;1.58;;;17.40;60.90;;;;;;4993682;28;95426;-59
2022/02/21 11:06:31;;;;;;;10.75;1.70;;;17.40;60.70;;;;;;5017404;28;95895;-58
2022/02/21 11:09:04;;;;;;;6.27;1.67;;;17.30;61.20;;;;;;5012151;28;95885;-59
2022/02/21 11:11:42;;;;;;;8.77;1.42;;;17.20;61.40;;;;;;5018800;28;95915;-57
2022/02/21 11:14:19;;;;;;;14.23;2.03;;;17.20;61.40;;;;;;5010892;28;95781;-60
2022/02/21 11:16:50;;;;;;;7.55;1.75;;;17.10;62.00;;;;;;5002014;28;95953;-60
2022/02/21 11:19:21;;;;;;;8.65;1.83;;;17.10;62.00;;;;;;5014499;28;95805;-59
2022/02/21 11:21:53;;;;;;;9.07;1.63;;;17.00;62.00;;;;;;5013824;28;95850;-59
2022/02/21 11:24:30;;;;;;;11.15;2.22;;;16.80;62.50;;;;;;5022487;28;95703;-58
2022/02/21 11:27:14;;;;;;;10.52;1.58;;;16.80;62.80;;;;;;5018918;28;96224;-57
2022/02/21 11:30:10;;;;;;;13.85;2.75;;;16.70;62.90;;;;;;5010525;28;95762;-60
2022/02/21 11:33:02;;;;;;;10.27;1.92;;;16.60;63.20;;;;;;5007708;28;95548;-59
2022/02/21 11:35:35;;;;;;;11.77;1.60;;;16.60;63.40;;;;;;5014655;28;95600;-60
2022/02/21 11:38:20;;;;;;;10.88;1.98;;;16.50;63.70;;;;;;5017526;28;95961;-59
2022/02/21 11:41:01;;;;;;;8.48;1.88;;;16.40;63.80;;;;;;5021770;28;95690;-59
2022/02/21 11:43:41;;;;;;;15.70;2.88;;;16.40;64.20;;;;;;5017029;28;95708;-60
2022/02/21 11:46:24;;;;;;;19.40;2.22;;;16.30;64.40;;;;;;5016079;27;95741;-63
2022/02/21 11:48:58;;;;;;;11.63;2.20;;;16.20;65.00;;;;;;5020450;27;96658;-63
2022/02/21 11:51:32;;;;;;;15.32;2.30;;;16.10;64.70;;;;;;5012136;28;95684;-60
2022/02/21 11:54:15;;;;;;;13.13;2.60;;;16.10;65.00;;;;;;5018615;28;95740;-62
2022/02/21 11:56:52;;;;;;;11.00;1.60;;;16.00;65.50;;;;;;5019198;28;95701;-61
2022/02/21 11:59:24;;;;;;;6.47;1.85;;;16.00;65.50;;;;;;5025927;28;95732;-62
2022/02/21 12:02:17;;;;;;;9.85;2.33;;;15.90;65.60;;;;;;5007537;28;95751;-62
2022/02/21 12:04:58;;;;;;;6.95;1.67;;;15.80;65.70;;;;;;5018111;28;95832;-62
2022/02/21 12:07:38;;;;;;;8.40;1.55;;;15.80;66.40;;;;;;5009171;28;96153;-62
2022/02/21 12:10:09;;;;;;;7.55;1.40;;;15.70;66.50;;;;;;5022309;28;95993;-62
2022/02/21 12:12:57;;;;;;;7.47;1.80;;;15.60;66.50;;;;;;5018772;28;95996;-63
2022/02/21 12:15:32;;;;;;;11.73;1.50;;;15.60;66.70;;;;;;5011989;27;95901;-63
2022/02/21 12:18:24;;;;;;;10.68;2.10;;;15.60;66.90;;;;;;5025998;28;95756;-63
2022/02/21 12:21:22;;;;;;;13.45;1.95;;;15.60;67.00;;;;;;5014397;28;96914;-62
2022/02/21 12:23:57;;;;;;;8.45;2.17;;;15.50;67.10;;;;;;5013968;28;95416;-61
2022/02/21 12:26:37;;;;;;;8.38;2.33;;;15.50;67.00;;;;;;5016771;28;95642;-62
2022/02/21 12:29:24;;;;;;;8.75;2.10;;;15.40;67.40;;;;;;5016656;28;95241;-62
2022/02/21 12:31:59;;;;;;;5.18;2.03;;;15.30;67.20;;;;;;5013505;28;95871;-62
2022/02/21 12:34:31;;;;;;;9.95;2.30;;;15.20;67.50;;;;;;5016857;28;95768;-63
2022/02/21 12:37:08;;;;;;;6.97;1.40;;;15.20;67.80;;;;;;5012246;28;95750;-63
2022/02/21 12:39:43;;;;;;;10.52;2.88;;;15.10;68.00;;;;;;5015251;28;95565;-62
2022/02/21 12:42:24;;;;;;;4.05;0.98;;;15.10;67.70;;;;;;5014550;28;95891;-62
2022/02/21 12:44:56;;;;;;;4.55;1.70;;;15.00;68.20;;;;;;5024113;28;95862;-63
2022/02/21 12:47:27;;;;;;;6.75;1.65;;;14.90;68.50;;;;;;5011505;28;98696;-62
2022/02/21 12:50:05;;;;;;;9.43;2.00;;;14.80;68.70;;;;;;5015170;28;95399;-63
2022/02/21 12:52:37;;;;;;;4.90;2.00;;;14.70;68.70;;;;;;5020174;28;96257;-63
2022/02/21 12:55:07;;;;;;;5.57;1.50;;;14.70;69.00;;;;;;5023599;28;95599;-62
2022/02/21 12:57:42;;;;;;;11.60;1.90;;;14.60;68.90;;;;;;4997928;28;96244;-62
2022/02/21 13:00:13;;;;;;;16.45;2.15;;;14.50;69.30;;;;;;5029697;27;95771;-62
2022/02/21 13:02:44;;;;;;;10.57;2.05;;;14.50;69.50;;;;;;5013396;28;96714;-62
2022/02/21 13:05:16;;;;;;;8.73;1.98;;;14.50;69.60;;;;;;5012704;28;95949;-62
2022/02/21 13:07:47;;;;;;;11.38;1.80;;;14.50;69.70;;;;;;5026828;28;95761;-63
2022/02/21 13:10:18;;;;;;;5.72;1.40;;;14.50;69.90;;;;;;5024183;28;95276;-63
2022/02/21 13:12:50;;;;;;;;;;;14.40;69.70;;;;;;5018035;28;95874;-62
2022/02/21 13:15:20;;;;;;;5.30;1.38;;;14.40;70.40;;;;;;5017122;28;95754;-62
2022/02/21 13:17:56;;;;;;;7.45;1.98;;;14.30;70.20;;;;;;5021955;28;95514;-62